createdAt,value
2023-04-25T00:00:33.576Z,8.82
2023-04-25T00:03:10.014Z,11.30
2023-04-25T00:05:46.406Z,11.77
2023-04-25T00:08:23.215Z,7.68
2023-04-25T00:11:01.853Z,11.85
2023-04-25T00:13:38.246Z,12.20
2023-04-25T00:16:15.960Z,12.13
2023-04-25T00:18:54.126Z,15.70
2023-04-25T00:21:31.997Z,18.60
2023-04-25T00:24:08.478Z,18.80
2023-04-25T00:26:44.710Z,15.13
2023-04-25T00:29:21.493Z,11.63
2023-04-25T00:31:58.077Z,11.50
2023-04-25T00:34:34.319Z,12.05
2023-04-25T00:37:10.915Z,12.88
2023-04-25T00:39:47.006Z,15.35
2023-04-25T00:42:23.618Z,13.20
2023-04-25T00:45:01.214Z,13.43
2023-04-25T00:47:37.842Z,11.73
2023-04-25T00:50:14.522Z,11.30
2023-04-25T00:52:51.260Z,10.15
2023-04-25T00:55:27.591Z,10.48
2023-04-25T00:58:03.963Z,11.55
2023-04-25T01:00:41.677Z,10.20
2023-04-25T01:03:20.842Z,10.98
2023-04-25T01:05:57.728Z,11.73
2023-04-25T01:08:34.893Z,12.43
2023-04-25T01:11:11.372Z,12.25
2023-04-25T01:13:48.607Z,10.43
2023-04-25T01:16:25.521Z,7.93
2023-04-25T01:19:04.165Z,7.57
2023-04-25T01:21:40.964Z,7.30
2023-04-25T01:24:17.761Z,9.48
2023-04-25T01:26:56.670Z,10.20
2023-04-25T01:29:36.093Z,10.30
2023-04-25T01:32:13.293Z,10.38
2023-04-25T01:34:50.004Z,8.32
2023-04-25T01:37:26.910Z,10.57
2023-04-25T01:40:05.863Z,9.65
2023-04-25T01:42:44.225Z,13.15
2023-04-25T01:45:20.884Z,11.80
2023-04-25T01:47:59.805Z,10.43
2023-04-25T01:50:36.090Z,9.30
2023-04-25T01:53:15.136Z,8.80
2023-04-25T01:55:53.598Z,9.15
2023-04-25T01:58:32.019Z,10.00
2023-04-25T02:04:22.380Z,10.18
2023-04-25T02:06:59.433Z,10.95
2023-04-25T02:09:43.283Z,10.35
2023-04-25T02:12:21.532Z,9.53
2023-04-25T02:15:16.294Z,11.35
2023-04-25T02:18:06.704Z,9.98
2023-04-25T02:20:44.574Z,11.32
2023-04-25T02:23:20.908Z,10.50
2023-04-25T02:25:57.989Z,9.82
2023-04-25T02:28:34.961Z,11.32
2023-04-25T02:31:14.611Z,8.65
2023-04-25T02:33:51.162Z,9.43
2023-04-25T02:36:27.975Z,9.55
2023-04-25T02:39:04.189Z,10.98
2023-04-25T02:41:40.547Z,9.98
2023-04-25T02:44:16.860Z,12.05
2023-04-25T02:46:55.107Z,10.30
2023-04-25T02:49:33.843Z,9.57
2023-04-25T02:52:10.334Z,11.55
2023-04-25T02:54:46.424Z,10.73
2023-04-25T02:57:23.003Z,15.02
2023-04-25T02:59:59.067Z,13.75
2023-04-25T03:02:35.467Z,15.48
2023-04-25T03:05:12.101Z,18.55
2023-04-25T03:07:48.874Z,19.60
2023-04-25T03:10:26.694Z,21.55
2023-04-25T03:13:04.268Z,23.25
2023-04-25T03:15:40.542Z,19.50
2023-04-25T03:18:17.121Z,25.77
2023-04-25T03:20:53.487Z,24.90
2023-04-25T03:23:30.010Z,20.15
2023-04-25T03:26:06.623Z,24.15
2023-04-25T03:28:42.958Z,27.98
2023-04-25T03:31:19.206Z,21.17
2023-04-25T03:33:55.586Z,22.58
2023-04-25T03:36:42.593Z,21.08
2023-04-25T03:39:19.867Z,21.73
2023-04-25T03:41:59.397Z,22.67
2023-04-25T03:44:37.777Z,23.10
2023-04-25T03:47:14.496Z,25.38
2023-04-25T03:49:52.302Z,20.95
2023-04-25T03:52:31.327Z,22.95
2023-04-25T03:55:09.521Z,22.90
2023-04-25T03:57:46.715Z,23.33
2023-04-25T04:00:23.189Z,27.23
2023-04-25T04:03:02.722Z,24.83
2023-04-25T04:05:40.913Z,26.23
2023-04-25T04:08:17.262Z,24.27
2023-04-25T04:10:53.761Z,25.65
2023-04-25T04:13:30.909Z,26.83
2023-04-25T04:16:07.653Z,25.90
2023-04-25T04:18:45.252Z,23.13
2023-04-25T04:21:21.629Z,25.13
2023-04-25T04:24:00.377Z,19.63
2023-04-25T04:26:39.188Z,18.65
2023-04-25T04:29:53.891Z,14.93
2023-04-25T04:32:40.745Z,16.02
2023-04-25T04:35:16.969Z,16.25
2023-04-25T04:37:53.670Z,18.55
2023-04-25T04:40:32.670Z,15.57
2023-04-25T04:43:19.198Z,15.18
2023-04-25T04:46:04.693Z,17.85
2023-04-25T04:51:50.085Z,20.00
2023-04-25T04:54:45.114Z,22.63
2023-04-25T04:57:41.828Z,18.13
2023-04-25T05:00:41.258Z,18.33
2023-04-25T05:03:43.534Z,18.98
2023-04-25T05:06:49.276Z,19.33
2023-04-25T05:09:44.256Z,19.98
2023-04-25T05:12:40.531Z,18.20
2023-04-25T05:15:23.001Z,22.02
2023-04-25T05:18:02.862Z,20.77
2023-04-25T05:20:51.409Z,21.02
2023-04-25T05:23:32.622Z,20.80
2023-04-25T05:26:20.986Z,21.85
2023-04-25T05:29:10.264Z,21.85
2023-04-25T05:32:13.270Z,19.10
2023-04-25T05:34:50.678Z,19.40
2023-04-25T05:37:34.809Z,21.05
2023-04-25T05:40:19.779Z,22.23
2023-04-25T05:42:56.206Z,21.35
2023-04-25T05:45:45.778Z,21.35
2023-04-25T05:48:40.554Z,18.75
2023-04-25T05:51:27.988Z,19.38
2023-04-25T05:56:52.331Z,17.77
2023-04-25T05:59:28.734Z,19.55
2023-04-25T06:02:05.262Z,16.05
2023-04-25T06:04:45.398Z,15.65
2023-04-25T06:07:22.257Z,15.48
2023-04-25T06:09:58.428Z,12.85
2023-04-25T06:12:35.799Z,13.75
2023-04-25T06:15:27.154Z,13.02
2023-04-25T06:18:04.258Z,11.43
2023-04-25T06:20:40.975Z,11.70
2023-04-25T06:23:16.956Z,13.70
2023-04-25T06:26:08.258Z,16.02
2023-04-25T06:28:47.946Z,19.38
2023-04-25T06:31:24.263Z,22.00
2023-04-25T06:34:01.901Z,24.85
2023-04-25T06:36:41.850Z,18.40
2023-04-25T06:39:23.553Z,16.10
2023-04-25T06:41:59.763Z,10.43
2023-04-25T06:44:59.372Z,5.88
2023-04-25T06:47:38.258Z,4.20
2023-04-25T06:50:15.143Z,6.55
2023-04-25T06:52:52.137Z,6.78
2023-04-25T06:55:30.843Z,5.57
2023-04-25T06:58:22.874Z,6.43
2023-04-25T07:01:17.415Z,6.95
2023-04-25T07:03:53.852Z,4.95
2023-04-25T07:06:31.530Z,4.13
2023-04-25T07:09:09.103Z,4.40
2023-04-25T07:11:45.352Z,3.53
2023-04-25T07:14:21.811Z,4.18
2023-04-25T07:16:58.457Z,3.60
2023-04-25T07:19:38.258Z,3.10
2023-04-25T07:22:16.016Z,3.60
2023-04-25T07:24:53.532Z,3.45
2023-04-25T07:27:32.320Z,2.75
2023-04-25T07:30:17.351Z,3.30
2023-04-25T07:32:53.785Z,3.95
2023-04-25T07:35:30.114Z,3.25
2023-04-25T07:38:07.137Z,2.55
2023-04-25T07:40:44.238Z,2.63
2023-04-25T07:43:21.610Z,2.25
2023-04-25T07:46:05.607Z,3.88
2023-04-25T07:51:20.325Z,4.93
2023-04-25T07:53:56.911Z,7.00
2023-04-25T07:56:45.158Z,6.55
2023-04-25T07:59:29.849Z,7.93
2023-04-25T08:02:08.355Z,6.60
2023-04-25T08:04:45.194Z,8.40
2023-04-25T08:07:23.717Z,5.32
2023-04-25T08:10:05.575Z,3.13
2023-04-25T08:12:43.881Z,2.33
2023-04-25T08:15:20.810Z,1.73
2023-04-25T08:17:57.267Z,2.33
2023-04-25T08:20:33.698Z,1.42
2023-04-25T08:23:13.722Z,1.10
2023-04-25T08:26:08.148Z,0.93
2023-04-25T08:28:47.699Z,1.50
2023-04-25T08:31:24.049Z,1.40
2023-04-25T08:34:07.039Z,1.40
2023-04-25T08:36:48.133Z,1.88
2023-04-25T08:39:45.538Z,1.33
2023-04-25T08:42:38.402Z,2.15
2023-04-25T08:45:15.475Z,1.50
2023-04-25T08:47:54.859Z,2.17
2023-04-25T08:50:31.649Z,3.65
2023-04-25T08:53:17.168Z,2.88
2023-04-25T08:55:56.266Z,1.88
2023-04-25T08:58:33.290Z,1.60
2023-04-25T09:01:09.942Z,1.00
2023-04-25T09:03:54.193Z,3.25
2023-04-25T09:06:32.803Z,1.63
2023-04-25T09:09:11.261Z,1.80
2023-04-25T09:11:47.652Z,1.30
2023-04-25T09:14:26.261Z,2.85
2023-04-25T09:17:15.388Z,2.63
2023-04-25T09:20:10.310Z,1.30
2023-04-25T09:22:47.082Z,1.38
2023-04-25T09:25:26.021Z,1.05
2023-04-25T09:28:06.138Z,1.30
2023-04-25T09:30:42.940Z,0.82
2023-04-25T09:33:37.582Z,1.60
2023-04-25T09:36:15.179Z,1.35
2023-04-25T09:39:15.807Z,1.70
2023-04-25T09:41:55.678Z,1.38
2023-04-25T09:44:32.733Z,1.17
2023-04-25T09:47:16.885Z,1.83
2023-04-25T09:49:55.582Z,1.15
2023-04-25T09:52:32.123Z,1.33
2023-04-25T09:55:33.636Z,1.77
2023-04-25T09:58:13.662Z,1.50
2023-04-25T10:00:51.741Z,1.08
2023-04-25T10:06:56.714Z,3.17
2023-04-25T10:09:36.708Z,1.95
2023-04-25T10:12:13.603Z,3.10
2023-04-25T10:14:50.870Z,1.92
2023-04-25T10:17:28.432Z,1.48
2023-04-25T10:20:10.984Z,2.92
2023-04-25T10:22:49.206Z,1.70
2023-04-25T10:25:25.689Z,2.13
2023-04-25T10:28:04.359Z,2.78
2023-04-25T10:31:01.746Z,3.63
2023-04-25T10:33:42.429Z,2.25
2023-04-25T10:36:22.073Z,3.15
2023-04-25T10:39:08.043Z,3.63
2023-04-25T10:41:53.411Z,2.85
2023-04-25T10:44:31.429Z,3.10
2023-04-25T10:47:10.686Z,2.85
2023-04-25T10:49:51.755Z,2.97
2023-04-25T10:52:31.513Z,7.00
2023-04-25T10:55:08.363Z,6.47
2023-04-25T10:57:50.335Z,5.45
2023-04-25T11:00:38.392Z,10.40
2023-04-25T11:03:25.511Z,10.02
2023-04-25T11:06:03.217Z,9.35
2023-04-25T11:08:50.767Z,7.78
2023-04-25T11:11:30.594Z,8.10
2023-04-25T11:14:10.056Z,5.15
2023-04-25T11:16:46.522Z,6.38
2023-04-25T11:19:24.182Z,5.00
2023-04-25T11:22:02.325Z,4.32
2023-04-25T11:24:38.511Z,6.55
2023-04-25T11:27:15.329Z,4.68
2023-04-25T11:29:51.682Z,3.97
2023-04-25T11:32:28.474Z,3.67
2023-04-25T11:35:06.487Z,3.03
2023-04-25T11:37:44.824Z,3.10
2023-04-25T11:40:21.175Z,2.17
2023-04-25T11:43:00.466Z,1.58
2023-04-25T11:45:38.105Z,1.50
2023-04-25T11:48:14.352Z,0.70
2023-04-25T11:50:52.158Z,1.13
2023-04-25T11:53:28.835Z,1.35
2023-04-25T11:56:11.754Z,1.17
2023-04-25T11:59:07.738Z,1.17
2023-04-25T12:01:50.416Z,1.30
2023-04-25T12:04:26.796Z,1.13
2023-04-25T12:07:03.354Z,1.25
2023-04-25T12:09:40.893Z,1.15
2023-04-25T12:12:17.179Z,1.08
2023-04-25T12:14:55.551Z,1.35
2023-04-25T12:17:31.936Z,1.15
2023-04-25T12:20:11.336Z,1.70
2023-04-25T12:22:49.234Z,1.60
2023-04-25T12:25:41.477Z,1.17
2023-04-25T12:28:32.237Z,1.17
2023-04-25T12:31:08.804Z,1.08
2023-04-25T12:33:48.133Z,1.25
2023-04-25T12:39:04.503Z,1.38
2023-04-25T12:41:40.799Z,1.90
2023-04-25T12:44:35.910Z,1.95
2023-04-25T12:47:12.126Z,2.00
2023-04-25T12:49:49.160Z,2.35
2023-04-25T12:52:25.265Z,1.20
2023-04-25T12:55:01.672Z,1.65
2023-04-25T12:57:37.998Z,2.08
2023-04-25T13:00:15.453Z,2.10
2023-04-25T13:02:51.797Z,1.48
2023-04-25T13:05:28.209Z,2.22
2023-04-25T13:08:04.962Z,3.42
2023-04-25T13:10:42.360Z,3.17
2023-04-25T13:13:18.653Z,3.50
2023-04-25T13:15:55.246Z,2.13
2023-04-25T13:18:32.183Z,2.25
2023-04-25T13:21:11.286Z,5.55
2023-04-25T13:23:47.630Z,5.38
2023-04-25T13:26:24.025Z,5.55
2023-04-25T13:29:00.929Z,8.57
2023-04-25T13:31:37.086Z,7.38
2023-04-25T13:34:13.232Z,7.03
2023-04-25T13:36:49.709Z,5.13
2023-04-25T13:39:25.948Z,5.95
2023-04-25T13:42:02.636Z,5.78
2023-04-25T13:44:38.638Z,3.90
2023-04-25T13:47:15.158Z,3.25
2023-04-25T13:49:51.533Z,4.18
2023-04-25T13:52:27.837Z,3.97
2023-04-25T13:55:07.211Z,3.08
2023-04-25T13:57:44.180Z,3.60
2023-04-25T14:00:20.836Z,3.60
2023-04-25T14:02:57.284Z,3.55
2023-04-25T14:05:38.389Z,3.13
2023-04-25T14:08:15.164Z,2.40
2023-04-25T14:10:51.370Z,4.13
2023-04-25T14:13:27.927Z,4.88
2023-04-25T14:16:05.685Z,4.28
2023-04-25T14:18:42.095Z,3.25
2023-04-25T14:21:18.379Z,3.80
2023-04-25T14:23:55.626Z,3.78
2023-04-25T14:26:31.854Z,3.35
2023-04-25T14:29:09.196Z,3.63
2023-04-25T14:31:45.745Z,4.97
2023-04-25T14:34:22.343Z,5.10
2023-04-25T14:36:58.758Z,5.03
2023-04-25T14:39:35.156Z,6.95
2023-04-25T14:42:11.641Z,1.25
2023-04-25T14:44:47.990Z,0.82
2023-04-25T14:47:24.478Z,0.90
2023-04-25T14:50:01.994Z,1.10
2023-04-25T14:52:38.525Z,1.48
2023-04-25T14:55:17.491Z,1.10
2023-04-25T14:57:57.631Z,1.10
2023-04-25T15:00:34.201Z,1.63
2023-04-25T15:03:13.454Z,0.77
2023-04-25T15:05:49.631Z,2.17
2023-04-25T15:08:26.470Z,1.10
2023-04-25T15:11:03.407Z,1.30
2023-04-25T15:13:40.590Z,1.20
2023-04-25T15:16:17.129Z,2.05
2023-04-25T15:18:53.448Z,2.13
2023-04-25T15:21:31.258Z,2.30
2023-04-25T15:24:08.153Z,1.83
2023-04-25T15:26:46.224Z,1.90
2023-04-25T15:29:22.483Z,5.60
2023-04-25T15:31:58.855Z,7.05
2023-04-25T15:34:36.380Z,4.50
2023-04-25T15:37:12.935Z,7.72
2023-04-25T15:40:00.646Z,5.35
2023-04-25T15:42:42.788Z,8.43
2023-04-25T15:45:21.650Z,7.20
2023-04-25T15:47:58.649Z,5.25
2023-04-25T15:50:36.669Z,4.32
2023-04-25T15:53:13.068Z,5.97
2023-04-25T15:55:49.428Z,4.53
2023-04-25T15:58:26.787Z,5.60
2023-04-25T16:01:04.314Z,9.38
2023-04-25T16:03:41.103Z,6.32
2023-04-25T16:06:17.590Z,12.50
2023-04-25T16:08:54.580Z,5.53
2023-04-25T16:11:30.661Z,6.43
2023-04-25T16:14:08.288Z,5.75
2023-04-25T16:16:44.834Z,9.23
2023-04-25T16:19:21.513Z,7.43
2023-04-25T16:21:57.548Z,6.00
2023-04-25T16:24:33.582Z,5.55
2023-04-25T16:27:10.528Z,7.25
2023-04-25T16:29:48.810Z,11.00
2023-04-25T16:32:25.231Z,14.10
2023-04-25T16:35:02.182Z,9.48
2023-04-25T16:37:38.581Z,6.93
2023-04-25T16:40:15.036Z,7.30
2023-04-25T16:42:51.336Z,8.48
2023-04-25T16:45:27.781Z,11.65
2023-04-25T16:48:04.296Z,9.93
2023-04-25T16:50:40.629Z,13.60
2023-04-25T16:53:17.189Z,14.23
2023-04-25T16:55:53.445Z,10.18
2023-04-25T16:58:29.939Z,9.77
2023-04-25T17:01:06.662Z,10.10
2023-04-25T17:03:43.739Z,8.90
2023-04-25T17:06:20.240Z,7.75
2023-04-25T17:08:56.804Z,8.27
2023-04-25T17:11:33.310Z,6.57
2023-04-25T17:14:09.942Z,3.45
2023-04-25T17:16:46.138Z,2.35
2023-04-25T17:19:22.530Z,7.53
2023-04-25T17:21:59.024Z,4.45
2023-04-25T17:24:35.474Z,2.70
2023-04-25T17:27:11.932Z,2.70
2023-04-25T17:29:48.451Z,3.75
2023-04-25T17:32:25.696Z,3.17
2023-04-25T17:35:03.640Z,3.20
2023-04-25T17:37:40.279Z,1.45
2023-04-25T17:40:17.383Z,1.70
2023-04-25T17:42:53.900Z,1.08
2023-04-25T17:45:34.067Z,5.63
2023-04-25T17:48:10.274Z,12.38
2023-04-25T17:50:46.757Z,21.58
2023-04-25T17:53:23.314Z,18.38
2023-04-25T17:55:59.426Z,21.17
2023-04-25T17:58:35.738Z,16.52
2023-04-25T18:01:12.116Z,15.85
2023-04-25T18:03:49.400Z,25.40
2023-04-25T18:06:27.699Z,39.65
2023-04-25T18:09:15.274Z,21.67
2023-04-25T18:11:52.480Z,12.93
2023-04-25T18:14:29.253Z,14.93
2023-04-25T18:17:06.685Z,16.95
2023-04-25T18:19:43.147Z,13.32
2023-04-25T18:22:19.132Z,14.13
2023-04-25T18:24:55.802Z,10.57
2023-04-25T18:27:32.130Z,9.38
2023-04-25T18:30:10.698Z,10.95
2023-04-25T18:32:47.143Z,9.98
2023-04-25T18:35:23.778Z,5.70
2023-04-25T18:38:00.086Z,4.90
2023-04-25T18:40:47.014Z,5.13
2023-04-25T18:43:30.994Z,5.35
2023-04-25T18:46:07.736Z,5.75
2023-04-25T18:48:44.794Z,6.75
2023-04-25T18:51:22.953Z,8.68
2023-04-25T18:53:59.729Z,8.95
2023-04-25T18:56:36.162Z,16.83
2023-04-25T18:59:14.845Z,12.43
2023-04-25T19:01:52.922Z,15.00
2023-04-25T19:04:29.341Z,15.85
2023-04-25T19:07:05.483Z,14.50
2023-04-25T19:09:41.873Z,17.27
2023-04-25T19:12:18.246Z,10.15
2023-04-25T19:14:54.884Z,11.32
2023-04-25T19:17:31.077Z,9.25
2023-04-25T19:20:08.318Z,15.20
2023-04-25T19:22:44.513Z,7.50
2023-04-25T19:25:21.817Z,4.70
2023-04-25T19:28:00.060Z,4.82
2023-04-25T19:30:37.315Z,5.50
2023-04-25T19:33:14.512Z,7.03
2023-04-25T19:35:50.943Z,6.38
2023-04-25T19:38:27.297Z,4.72
2023-04-25T19:41:03.660Z,4.63
2023-04-25T19:43:40.267Z,2.90
2023-04-25T19:46:16.472Z,6.00
2023-04-25T19:48:53.074Z,4.95
2023-04-25T19:51:30.088Z,8.13
2023-04-25T19:54:06.325Z,4.45
2023-04-25T19:56:42.799Z,5.90
2023-04-25T19:59:19.571Z,4.22
2023-04-25T20:01:56.147Z,4.22
2023-04-25T20:04:32.778Z,7.28
2023-04-25T20:07:09.013Z,7.05
2023-04-25T20:09:45.561Z,7.25
2023-04-25T20:12:21.876Z,9.63
2023-04-25T20:14:58.481Z,6.05
2023-04-25T20:17:34.820Z,4.20
2023-04-25T20:20:11.968Z,5.22
2023-04-25T20:22:50.328Z,5.15
2023-04-25T20:25:26.367Z,5.80
2023-04-25T20:28:02.864Z,5.72
2023-04-25T20:30:39.259Z,6.35
2023-04-25T20:33:15.383Z,7.22
2023-04-25T20:35:52.444Z,5.35
2023-04-25T20:38:28.587Z,5.05
2023-04-25T20:41:05.155Z,3.50
2023-04-25T20:43:41.677Z,3.55
2023-04-25T20:46:17.919Z,3.30
2023-04-25T20:48:54.575Z,3.10
2023-04-25T20:51:35.697Z,3.38
2023-04-25T20:54:12.809Z,3.30
2023-04-25T20:56:50.464Z,2.05
2023-04-25T20:59:27.988Z,1.98
2023-04-25T21:02:04.580Z,2.50
2023-04-25T21:04:43.548Z,2.28
2023-04-25T21:07:19.975Z,1.90
2023-04-25T21:09:56.369Z,3.13
2023-04-25T21:12:33.116Z,1.85
2023-04-25T21:15:11.658Z,1.55
2023-04-25T21:17:49.325Z,1.92
2023-04-25T21:20:25.837Z,1.40
2023-04-25T21:23:02.660Z,1.15
2023-04-25T21:25:39.063Z,2.03
2023-04-25T21:28:15.380Z,2.20
2023-04-25T21:30:52.119Z,1.35
2023-04-25T21:33:28.323Z,1.70
2023-04-25T21:36:05.668Z,1.58
2023-04-25T21:38:41.784Z,1.20
2023-04-25T21:41:18.326Z,2.15
2023-04-25T21:43:54.857Z,1.73
2023-04-25T21:46:31.520Z,1.30
2023-04-25T21:49:07.775Z,1.77
2023-04-25T21:51:44.384Z,4.70
2023-04-25T21:54:20.559Z,3.75
2023-04-25T21:56:57.297Z,3.30
2023-04-25T21:59:35.377Z,3.65
2023-04-25T22:02:11.793Z,3.20
2023-04-25T22:04:48.865Z,3.80
2023-04-25T22:07:25.603Z,2.63
2023-04-25T22:10:02.270Z,2.28
2023-04-25T22:12:38.919Z,2.38
2023-04-25T22:15:16.891Z,2.20
2023-04-25T22:17:57.080Z,1.70
2023-04-25T22:20:34.366Z,3.10
2023-04-25T22:23:11.444Z,3.63
2023-04-25T22:25:47.498Z,3.45
2023-04-25T22:28:23.742Z,3.05
2023-04-25T22:31:00.088Z,5.82
2023-04-25T22:33:36.598Z,4.18
2023-04-25T22:36:13.298Z,3.38
2023-04-25T22:38:50.092Z,1.65
2023-04-25T22:41:26.461Z,2.25
2023-04-25T22:44:02.852Z,2.95
2023-04-25T22:46:39.533Z,2.95
2023-04-25T22:49:16.633Z,4.35
2023-04-25T22:51:56.869Z,6.63
2023-04-25T22:54:33.402Z,5.50
2023-04-25T22:57:09.568Z,4.20
2023-04-25T22:59:46.301Z,4.25
2023-04-25T23:02:24.335Z,2.40
2023-04-25T23:05:01.031Z,2.78
2023-04-25T23:07:39.955Z,2.90
2023-04-25T23:10:16.819Z,3.25
2023-04-25T23:12:54.162Z,4.10
2023-04-25T23:15:31.089Z,4.40
2023-04-25T23:17:58.904Z,3.25
2023-04-25T23:20:26.977Z,4.50
2023-04-25T23:22:54.977Z,7.90
2023-04-25T23:25:22.599Z,6.28
2023-04-25T23:27:50.172Z,7.70
2023-04-25T23:30:18.058Z,7.25
2023-04-25T23:32:45.898Z,6.22
2023-04-25T23:35:14.021Z,6.35
2023-04-25T23:37:41.842Z,6.65
2023-04-25T23:40:10.113Z,6.85
2023-04-25T23:42:39.308Z,6.38
2023-04-25T23:45:08.381Z,6.05
2023-04-25T23:47:36.760Z,10.13
2023-04-25T23:50:05.493Z,8.07
2023-04-25T23:52:32.933Z,8.63
2023-04-25T23:55:00.714Z,6.78
2023-04-25T23:57:28.246Z,7.47
2023-04-25T23:59:56.374Z,6.65
